createdAt,value
2019-02-12T12:41:55.845Z,29.13
2019-02-12T12:43:40.272Z,29.17
2019-02-12T12:45:24.771Z,29.15
2019-02-12T12:47:09.176Z,29.08
2019-02-12T12:48:53.602Z,29.05
2019-02-12T12:50:38.051Z,29.23
2019-02-12T12:52:22.482Z,29.18
2019-02-12T12:54:06.874Z,29.39
2019-02-12T12:55:51.326Z,29.41
2019-02-12T12:57:41.628Z,29.49
2019-02-12T12:59:21.870Z,29.29
2019-02-12T13:01:06.306Z,29.30
2019-02-12T13:02:50.891Z,29.28
2019-02-12T13:04:35.511Z,29.30
2019-02-12T13:06:19.953Z,29.44
2019-02-12T13:08:04.406Z,29.36
2019-02-12T13:09:48.815Z,29.49
2019-02-12T13:11:33.229Z,29.46
2019-02-12T13:13:17.749Z,29.56
2019-02-12T13:15:02.333Z,29.61
2019-02-12T13:16:46.832Z,29.55
2019-02-12T13:18:31.229Z,29.77
2019-02-12T13:20:17.961Z,29.63
2019-02-12T13:22:02.362Z,29.53
2019-02-12T13:23:46.881Z,29.89
2019-02-12T13:25:31.332Z,29.63
2019-02-12T13:27:15.807Z,29.64
2019-02-12T13:29:00.249Z,29.89
2019-02-12T13:30:44.667Z,29.71
2019-02-12T13:32:29.092Z,29.53
2019-02-12T13:34:13.534Z,29.74
2019-02-12T13:35:57.940Z,29.47
2019-02-12T13:37:42.381Z,29.60
2019-02-12T13:39:26.778Z,29.71
2019-02-12T13:41:11.235Z,29.79
2019-02-12T13:42:55.660Z,29.68
2019-02-12T13:44:40.152Z,29.84
2019-02-12T13:46:24.585Z,28.10
2019-02-12T13:48:09.011Z,28.17
2019-02-12T13:49:53.434Z,27.57
2019-02-12T13:51:37.864Z,27.35
2019-02-12T13:53:22.262Z,27.04
2019-02-12T13:55:16.905Z,27.34
2019-02-12T13:56:55.515Z,26.83
2019-02-12T13:58:39.915Z,27.72
2019-02-12T14:00:24.409Z,27.28
2019-02-12T14:02:08.802Z,26.88
2019-02-12T14:03:53.335Z,27.00
2019-02-12T14:05:37.713Z,27.88
2019-02-12T14:07:22.139Z,27.29
2019-02-12T14:09:07.090Z,27.71
2019-02-12T14:10:51.510Z,27.33
2019-02-12T14:12:35.982Z,27.11
2019-02-12T14:14:20.542Z,27.96
2019-02-12T14:16:05.115Z,27.40
2019-02-12T14:17:49.722Z,28.16
